Time;durP1;ratioP1;P1;durP2;ratioP2;P2;SDS_P1;SDS_P2;PMS_P1;PMS_P2;Temp;Humidity;BMP_temperature;BMP_pressure;BME280_temperature;BME280_humidity;BME280_pressure;Samples;Min_cycle;Max_cycle;Signal;HPM_P1;HPM_P2
2023/04/29 00:28:42;;;;;;;;;;;;;;;;;;4966410;28;19930;-86
2023/04/29 00:31:09;;;;;;;;;;;;;;;;;;4956249;29;19958;-84
2023/04/29 00:33:36;;;;;;;;;;;;;;;;;;4979364;28;19965;-86
2023/04/29 00:36:09;;;;;;;;;;;;;;;;;;4963081;28;19913;-86
2023/04/29 00:38:42;;;;;;;;;;;;;;;;;;4978100;28;20058;-85
2023/04/29 00:41:30;;;;;;;;;;;;;;;;;;4967263;28;19922;-86
2023/04/29 00:43:56;;;;;;;;;;;;;;;;;;4963705;28;19930;-85
2023/04/29 00:46:35;;;;;;;;;;;;;;;;;;4958904;28;19930;-85
2023/04/29 00:49:01;;;;;;;;;;;;;;;;;;4969353;28;19922;-85
2023/04/29 00:51:28;;;;;;;;;;;;;;;;;;4948953;28;19985;-87
2023/04/29 00:53:59;;;;;;;;;;;;;;;;;;4953625;29;19929;-85
2023/04/29 00:56:29;;;;;;;;;;;;;;;;;;4977669;29;20368;-86
2023/04/29 00:58:55;;;;;;;;;;;;;;;;;;4958601;29;19922;-87
2023/04/29 01:01:22;;;;;;;;;;;;;;;;;;4965911;29;19922;-87
2023/04/29 01:45:20;;;;;;;;;;;;;;;;;;4973398;28;19957;-86
2023/04/29 01:47:51;;;;;;;;;;;;;;;;;;4979880;28;20033;-86
2023/04/29 01:50:28;;;;;;;;;;;;;;;;;;4980142;29;20030;-86
2023/04/29 01:52:54;;;;;;;;;;;;;;;;;;4963929;29;19929;-87
2023/04/29 01:55:44;;;;;;;;;;;;;;;;;;4980813;29;19946;-85
2023/04/29 01:58:29;;;;;;;;;;;;;;;;;;4980349;29;19929;-88
2023/04/29 02:01:05;;;;;;;;;;;;;;;;;;4965428;29;19914;-87
2023/04/29 02:03:31;;;;;;;;;;;;;;;;;;4963232;29;19930;-86
2023/04/29 02:06:05;;;;;;;;;;;;;;;;;;4963635;29;20077;-86
2023/04/29 02:08:32;;;;;;;;;;;;;;;;;;4979278;29;19923;-86
2023/04/29 02:10:58;;;;;;;;;;;;;;;;;;4979043;29;19990;-85
2023/04/29 02:13:26;;;;;;;;;;;;;;;;;;4963384;29;19970;-86
2023/04/29 02:15:52;;;;;;;;;;;;;;;;;;4962320;29;19982;-87
2023/04/29 02:18:18;;;;;;;;;;;;;;;;;;4947910;29;19969;-86
2023/04/29 02:20:44;;;;;;;;;;;;;;;;;;4947348;29;19985;-86
2023/04/29 02:23:10;;;;;;;;;;;;;;;;;;4950826;29;19978;-85
2023/04/29 02:25:48;;;;;;;;;;;;;;;;;;4979965;29;19906;-85
2023/04/29 02:28:33;;;;;;;;;;;;;;;;;;4979778;28;19990;-85
2023/04/29 02:31:00;;;;;;;;;;;;;;;;;;4963340;29;19933;-85
2023/04/29 02:33:33;;;;;;;;;;;;;;;;;;4979714;29;19945;-86
2023/04/29 02:36:02;;;;;;;;;;;;;;;;;;4980436;28;19978;-84
2023/04/29 02:38:28;;;;;;;;;;;;;;;;;;4961902;29;19937;-85
2023/04/29 02:41:09;;;;;;;;;;;;;;;;;;4979736;28;19930;-86
2023/04/29 02:43:36;;;;;;;;;;;;;;;;;;4963004;29;19929;-86
2023/04/29 02:46:20;;;;;;;;;;;;;;;;;;4967359;29;19954;-86
2023/04/29 02:48:46;;;;;;;;;;;;;;;;;;4947072;29;19934;-86
2023/04/29 02:51:13;;;;;;;;;;;;;;;;;;4963701;29;20029;-87
2023/04/29 02:53:39;;;;;;;;;;;;;;;;;;4957527;29;19930;-85
2023/04/29 02:56:14;;;;;;;;;;;;;;;;;;4963940;29;19914;-86
2023/04/29 02:58:44;;;;;;;;;;;;;;;;;;4978662;29;19938;-86
2023/04/29 03:01:26;;;;;;;;;;;;;;;;;;4963031;29;19945;-86
2023/04/29 03:03:52;;;;;;;;;;;;;;;;;;4946882;29;19929;-86
2023/04/29 03:06:18;;;;;;;;;;;;;;;;;;4963959;29;19926;-86
2023/04/29 03:08:44;;;;;;;;;;;;;;;;;;4948700;29;19934;-86
2023/04/29 03:29:41;;;;;;;;;;;;;;;;;;5106357;23;19917;-86
2023/04/29 04:03:14;;;;;;;;;;;;;;;;;;4963964;28;19930;-86
2023/04/29 04:05:40;;;;;;;;;;;;;;;;;;4963684;29;19923;-87
2023/04/29 04:08:06;;;;;;;;;;;;;;;;;;4947717;29;19937;-88
2023/04/29 04:10:32;;;;;;;;;;;;;;;;;;4953295;29;19927;-86
2023/04/29 04:13:01;;;;;;;;;;;;;;;;;;4964188;29;19922;-85
2023/04/29 04:15:27;;;;;;;;;;;;;;;;;;4947071;29;19929;-84
2023/04/29 04:17:53;;;;;;;;;;;;;;;;;;4947281;29;20009;-85
2023/04/29 04:20:19;;;;;;;;;;;;;;;;;;4947595;29;19978;-86
2023/04/29 04:22:45;;;;;;;;;;;;;;;;;;4948053;29;19922;-86
2023/04/29 04:25:10;;;;;;;;;;;;;;;;;;4957975;28;19986;-86
2023/04/29 04:27:40;;;;;;;;;;;;;;;;;;4965061;28;19917;-85
2023/04/29 04:30:06;;;;;;;;;;;;;;;;;;4971706;28;19927;-86
2023/04/29 04:32:33;;;;;;;;;;;;;;;;;;4956437;29;19922;-85
2023/04/29 04:43:10;;;;;;;;;;;;;;;;;;5100388;23;20037;-86
2023/04/29 04:50:48;;;;;;;;;;;;;;;;;;5458887;23;19926;-94
2023/04/29 04:53:14;;;;;;;;;;;;;;;;;;4961953;29;19926;-94
2023/04/29 04:55:40;;;;;;;;;;;;;;;;;;5416670;23;19926;-91
2023/04/29 05:50:02;;;;;;;;;;;;;;;;;;1425187;23;20186;-94
2023/04/29 06:26:14;;;;;;;;;;;;;;;;;;5050773;23;19922;-92
2023/04/29 06:28:40;;;;;;;;;;;;;;;;;;4954291;29;19962;-93
2023/04/29 06:31:07;;;;;;;;;;;;;;;;;;4946339;29;19986;-91
2023/04/29 06:33:33;;;;;;;;;;;;;;;;;;4958509;29;19933;-93
2023/04/29 06:36:04;;;;;;;;;;;;;;;;;;4952896;29;20022;-95
2023/04/29 06:38:31;;;;;;;;;;;;;;;;;;4953288;29;19922;-95
2023/04/29 07:35:27;;;;;;;;;;;;;;;;;;4975506;28;19930;-89
2023/04/29 07:37:53;;;;;;;;;;;;;;;;;;4951881;29;19926;-92
2023/04/29 07:40:20;;;;;;;;;;;;;;;;;;4950465;29;19907;-95
2023/04/29 07:58:20;;;;;;;;;;;;;;;;;;4959486;28;19978;-85
2023/04/29 08:05:58;;;;;;;;;;;;;;;;;;5980210;23;20861;-85
2023/04/29 08:08:24;;;;;;;;;;;;;;;;;;4946035;29;19966;-85
2023/04/29 08:10:50;;;;;;;;;;;;;;;;;;4943027;29;19926;-83
2023/04/29 08:13:16;;;;;;;;;;;;;;;;;;4947497;29;20403;-84
2023/04/29 08:15:42;;;;;;;;;;;;;;;;;;4944010;29;19922;-84
2023/04/29 08:18:08;;;;;;;;;;;;;;;;;;4939549;29;20009;-84
2023/04/29 08:20:34;;;;;;;;;;;;;;;;;;4935305;29;19923;-86
2023/04/29 08:23:00;;;;;;;;;;;;;;;;;;4939539;29;19923;-85
2023/04/29 08:25:26;;;;;;;;;;;;;;;;;;4942734;29;19934;-85
2023/04/29 08:27:52;;;;;;;;;;;;;;;;;;4938557;29;19989;-85
2023/04/29 08:30:18;;;;;;;;;;;;;;;;;;4945112;29;19922;-85
2023/04/29 08:32:44;;;;;;;;;;;;;;;;;;4945579;29;19930;-85
2023/04/29 08:35:11;;;;;;;;;;;;;;;;;;4961474;28;19922;-85
2023/04/29 08:37:37;;;;;;;;;;;;;;;;;;4943338;29;20013;-86
2023/04/29 08:40:03;;;;;;;;;;;;;;;;;;4947154;29;19977;-86
2023/04/29 08:42:29;;;;;;;;;;;;;;;;;;4937655;29;19922;-86
2023/04/29 08:44:55;;;;;;;;;;;;;;;;;;4945992;29;19922;-86
2023/04/29 08:47:21;;;;;;;;;;;;;;;;;;4960734;29;19926;-86
2023/04/29 08:49:47;;;;;;;;;;;;;;;;;;4946093;29;19922;-86
2023/04/29 08:52:13;;;;;;;;;;;;;;;;;;4962923;28;19930;-86
2023/04/29 08:54:40;;;;;;;;;;;;;;;;;;4942553;29;19922;-84
2023/04/29 08:57:06;;;;;;;;;;;;;;;;;;4943603;29;19923;-85
2023/04/29 08:59:32;;;;;;;;;;;;;;;;;;4941352;29;19937;-84
2023/04/29 09:01:58;;;;;;;;;;;;;;;;;;4943127;29;19993;-85
2023/04/29 09:04:23;;;;;;;;;;;;;;;;;;4943057;28;19927;-84
2023/04/29 09:06:51;;;;;;;;;;;;;;;;;;4962470;28;19926;-85
2023/04/29 09:09:17;;;;;;;;;;;;;;;;;;4949039;29;19978;-83
2023/04/29 09:11:44;;;;;;;;;;;;;;;;;;4944060;28;19927;-84
2023/04/29 09:14:10;;;;;;;;;;;;;;;;;;4964430;28;20396;-85
2023/04/29 09:16:37;;;;;;;;;;;;;;;;;;4964870;28;19998;-85
2023/04/29 09:19:03;;;;;;;;;;;;;;;;;;4964373;28;19966;-85
2023/04/29 09:21:32;;;;;;;;;;;;;;;;;;4950323;29;19922;-85
2023/04/29 09:23:58;;;;;;;;;;;;;;;;;;4962702;28;20293;-85
2023/04/29 09:26:24;;;;;;;;;;;;;;;;;;4949198;29;19926;-84
2023/04/29 09:28:50;;;;;;;;;;;;;;;;;;4937771;28;19930;-85
2023/04/29 09:31:17;;;;;;;;;;;;;;;;;;4961160;28;19923;-85
2023/04/29 09:33:43;;;;;;;;;;;;;;;;;;4947192;29;20482;-84
2023/04/29 09:36:08;;;;;;;;;;;;;;;;;;4938943;29;19974;-84
2023/04/29 09:38:35;;;;;;;;;;;;;;;;;;4955997;29;20016;-84
2023/04/29 09:41:01;;;;;;;;;;;;;;;;;;4937653;28;20299;-86
2023/04/29 09:43:27;;;;;;;;;;;;;;;;;;4949037;29;19923;-85
2023/04/29 09:45:53;;;;;;;;;;;;;;;;;;4949560;29;19922;-84
2023/04/29 09:48:19;;;;;;;;;;;;;;;;;;4944974;29;19930;-83
2023/04/29 09:50:45;;;;;;;;;;;;;;;;;;4948142;29;19969;-85
2023/04/29 09:53:11;;;;;;;;;;;;;;;;;;4958692;28;19923;-86
2023/04/29 09:55:37;;;;;;;;;;;;;;;;;;4969899;28;19927;-86
2023/04/29 09:58:03;;;;;;;;;;;;;;;;;;4950062;29;19922;-86
2023/04/29 10:00:30;;;;;;;;;;;;;;;;;;4949334;29;20305;-86
2023/04/29 10:02:56;;;;;;;;;;;;;;;;;;4942491;29;19926;-86
2023/04/29 10:05:22;;;;;;;;;;;;;;;;;;4949736;29;19922;-86
2023/04/29 10:07:49;;;;;;;;;;;;;;;;;;4945744;29;19934;-87
2023/04/29 10:10:16;;;;;;;;;;;;;;;;;;4948475;29;19923;-85
2023/04/29 10:12:42;;;;;;;;;;;;;;;;;;4945697;29;19923;-86
2023/04/29 10:15:07;;;;;;;;;;;;;;;;;;4955402;29;19926;-85
2023/04/29 10:17:33;;;;;;;;;;;;;;;;;;4977785;28;19957;-84
2023/04/29 10:19:59;;;;;;;;;;;;;;;;;;4951716;28;19922;-85
2023/04/29 10:22:25;;;;;;;;;;;;;;;;;;4951586;28;19922;-85
2023/04/29 10:24:52;;;;;;;;;;;;;;;;;;4947517;29;19926;-85
2023/04/29 10:27:19;;;;;;;;;;;;;;;;;;4948132;29;20281;-85
2023/04/29 10:29:45;;;;;;;;;;;;;;;;;;4948347;28;19946;-85
2023/04/29 10:32:11;;;;;;;;;;;;;;;;;;4948906;29;19922;-85
2023/04/29 10:34:40;;;;;;;;;;;;;;;;;;4950107;29;19923;-85
2023/04/29 10:37:06;;;;;;;;;;;;;;;;;;4949567;28;19953;-85
2023/04/29 10:39:32;;;;;;;;;;;;;;;;;;4968200;28;19958;-86
2023/04/29 10:41:58;;;;;;;;;;;;;;;;;;4949104;29;19922;-86
2023/04/29 10:44:24;;;;;;;;;;;;;;;;;;4949089;28;20009;-85
2023/04/29 10:46:50;;;;;;;;;;;;;;;;;;4946578;29;19926;-85
2023/04/29 10:49:16;;;;;;;;;;;;;;;;;;4945747;29;19981;-86
2023/04/29 10:51:42;;;;;;;;;;;;;;;;;;4971324;28;19985;-86
2023/04/29 10:54:08;;;;;;;;;;;;;;;;;;4949473;29;19929;-86
2023/04/29 10:56:35;;;;;;;;;;;;;;;;;;4949353;28;20398;-85
2023/04/29 10:59:01;;;;;;;;;;;;;;;;;;4945659;29;19922;-85
2023/04/29 11:01:27;;;;;;;;;;;;;;;;;;4948939;29;19930;-86
2023/04/29 11:03:54;;;;;;;;;;;;;;;;;;4949247;29;19931;-86
2023/04/29 11:06:20;;;;;;;;;;;;;;;;;;4944410;29;20013;-84
2023/04/29 11:08:46;;;;;;;;;;;;;;;;;;4951665;28;20078;-87
2023/04/29 11:11:11;;;;;;;;;;;;;;;;;;4965622;28;19937;-85
2023/04/29 11:13:37;;;;;;;;;;;;;;;;;;4946539;29;19922;-85
2023/04/29 11:16:04;;;;;;;;;;;;;;;;;;4964922;29;19922;-85
2023/04/29 11:18:30;;;;;;;;;;;;;;;;;;4965937;28;20007;-85
2023/04/29 11:20:56;;;;;;;;;;;;;;;;;;4948318;28;19986;-84
2023/04/29 11:23:22;;;;;;;;;;;;;;;;;;4957331;28;19942;-84
2023/04/29 11:25:48;;;;;;;;;;;;;;;;;;4966082;28;19922;-85
2023/04/29 11:28:14;;;;;;;;;;;;;;;;;;4964696;28;19965;-85
2023/04/29 11:30:40;;;;;;;;;;;;;;;;;;4947994;29;19922;-84
2023/04/29 11:33:06;;;;;;;;;;;;;;;;;;4957071;29;19986;-86
2023/04/29 11:38:06;;;;;;;;;;;;;;;;;;4993393;28;19925;-83
2023/04/29 11:40:34;;;;;;;;;;;;;;;;;;4954851;28;19948;-85
2023/04/29 11:43:00;;;;;;;;;;;;;;;;;;4959395;28;20376;-84
2023/04/29 11:45:27;;;;;;;;;;;;;;;;;;4958662;28;19998;-84
2023/04/29 11:47:55;;;;;;;;;;;;;;;;;;4953540;28;19926;-85
2023/04/29 11:50:21;;;;;;;;;;;;;;;;;;4959828;28;19930;-84
2023/04/29 11:52:48;;;;;;;;;;;;;;;;;;4956745;28;19923;-85
2023/04/29 11:55:13;;;;;;;;;;;;;;;;;;4968938;28;19922;-85
2023/04/29 11:57:39;;;;;;;;;;;;;;;;;;4978621;28;19922;-85
2023/04/29 12:00:05;;;;;;;;;;;;;;;;;;4953529;29;19922;-86
2023/04/29 12:02:31;;;;;;;;;;;;;;;;;;4986348;28;20365;-85
2023/04/29 12:05:03;;;;;;;;;;;;;;;;;;4974824;28;19926;-84
2023/04/29 12:07:29;;;;;;;;;;;;;;;;;;4956577;28;19930;-86
2023/04/29 12:09:56;;;;;;;;;;;;;;;;;;4957135;28;20284;-85
2023/04/29 12:12:22;;;;;;;;;;;;;;;;;;4962385;28;19922;-84
2023/04/29 12:14:48;;;;;;;;;;;;;;;;;;4956461;28;20247;-84
2023/04/29 12:17:16;;;;;;;;;;;;;;;;;;4959646;28;19922;-85
2023/04/29 12:19:43;;;;;;;;;;;;;;;;;;4975914;28;19998;-85
2023/04/29 12:22:08;;;;;;;;;;;;;;;;;;4959814;28;19922;-85
2023/04/29 12:24:35;;;;;;;;;;;;;;;;;;4954706;28;19930;-85
2023/04/29 12:27:01;;;;;;;;;;;;;;;;;;4979103;28;19911;-86
2023/04/29 12:29:32;;;;;;;;;;;;;;;;;;4958338;29;19929;-87
2023/04/29 12:32:13;;;;;;;;;;;;;;;;;;4976302;28;19926;-87
2023/04/29 12:34:39;;;;;;;;;;;;;;;;;;4962534;28;19965;-85
2023/04/29 12:37:05;;;;;;;;;;;;;;;;;;4966551;28;19925;-86
2023/04/29 12:39:32;;;;;;;;;;;;;;;;;;4955495;28;19986;-85
2023/04/29 12:41:57;;;;;;;;;;;;;;;;;;4970029;28;19927;-85
2023/04/29 12:44:24;;;;;;;;;;;;;;;;;;4962662;28;19929;-85
2023/04/29 12:47:02;;;;;;;;;;;;;;;;;;4977716;28;19932;-84
2023/04/29 12:49:39;;;;;;;;;;;;;;;;;;4983651;28;19922;-84
2023/04/29 12:52:11;;;;;;;;;;;;;;;;;;4995381;28;20380;-86
2023/04/29 12:54:36;;;;;;;;;;;;;;;;;;4996601;28;19932;-85
2023/04/29 12:57:03;;;;;;;;;;;;;;;;;;4955089;28;19946;-85
2023/04/29 12:59:29;;;;;;;;;;;;;;;;;;4962162;28;19970;-85
2023/04/29 13:02:13;;;;;;;;;;;;;;;;;;4985667;28;19910;-94
2023/04/29 13:04:40;;;;;;;;;;;;;;;;;;5653681;23;19925;-93
2023/04/29 13:27:52;;;;;;;;;;;;;;;;;;4988057;28;19945;-95
2023/04/29 13:30:18;;;;;;;;;;;;;;;;;;4971935;28;19990;-96
2023/04/29 13:32:44;;;;;;;;;;;;;;;;;;4965720;28;19953;-92
2023/04/29 13:35:10;;;;;;;;;;;;;;;;;;4969687;28;19966;-92
2023/04/29 14:14:16;;;;;;;;;;;;;;;;;;1277800;23;20217;-86
2023/04/29 14:16:42;;;;;;;;;;;;;;;;;;4941588;29;19930;-85
2023/04/29 14:19:08;;;;;;;;;;;;;;;;;;4960875;28;19926;-86
2023/04/29 14:21:34;;;;;;;;;;;;;;;;;;4954381;29;20337;-85
2023/04/29 14:24:03;;;;;;;;;;;;;;;;;;4948721;29;19930;-86
2023/04/29 14:26:32;;;;;;;;;;;;;;;;;;4961799;29;19927;-86
2023/04/29 14:29:01;;;;;;;;;;;;;;;;;;4975108;28;19936;-85
2023/04/29 14:31:37;;;;;;;;;;;;;;;;;;4958889;29;20402;-84
2023/04/29 14:34:08;;;;;;;;;;;;;;;;;;4970931;28;19976;-85
2023/04/29 14:36:37;;;;;;;;;;;;;;;;;;4964618;28;19910;-85
2023/04/29 14:39:07;;;;;;;;;;;;;;;;;;4969745;29;19966;-85
2023/04/29 14:41:33;;;;;;;;;;;;;;;;;;4961916;28;19918;-86
2023/04/29 14:43:59;;;;;;;;;;;;;;;;;;4971959;28;19926;-85
2023/04/29 14:46:27;;;;;;;;;;;;;;;;;;4949634;29;19942;-85
2023/04/29 14:48:53;;;;;;;;;;;;;;;;;;4967747;28;20395;-86
2023/04/29 14:51:19;;;;;;;;;;;;;;;;;;4947557;29;19926;-86
2023/04/29 14:53:45;;;;;;;;;;;;;;;;;;4944617;28;19966;-86
2023/04/29 14:56:14;;;;;;;;;;;;;;;;;;4961475;29;19978;-85
2023/04/29 14:58:41;;;;;;;;;;;;;;;;;;4953177;29;19962;-86
2023/04/29 15:01:13;;;;;;;;;;;;;;;;;;5233948;23;20223;-85
2023/04/29 15:03:53;;;;;;;;;;;;;;;;;;4974760;28;19933;-85
2023/04/29 15:06:27;;;;;;;;;;;;;;;;;;5415405;23;19918;-94
2023/04/29 15:11:29;;;;;;;;;;;;;;;;;;5311607;23;19976;-94
2023/04/29 15:13:56;;;;;;;;;;;;;;;;;;5208929;23;19910;-92
2023/04/29 15:16:22;;;;;;;;;;;;;;;;;;5582056;23;20826;-96
2023/04/29 15:18:48;;;;;;;;;;;;;;;;;;4958975;29;19926;-96
2023/04/29 15:21:14;;;;;;;;;;;;;;;;;;4948813;29;19933;-93
2023/04/29 15:23:46;;;;;;;;;;;;;;;;;;4964150;28;19934;-96
2023/04/29 15:49:43;;;;;;;;;;;;;;;;;;4971753;28;20381;-96
2023/04/29 15:52:08;;;;;;;;;;;;;;;;;;5066379;23;19934;-94
2023/04/29 15:54:36;;;;;;;;;;;;;;;;;;4950292;29;19911;-96
2023/04/29 15:57:03;;;;;;;;;;;;;;;;;;4949719;28;19968;-90
2023/04/29 16:25:26;;;;;;;;;;;;;;;;;;4970440;28;19970;-94
2023/04/29 16:27:52;;;;;;;;;;;;;;;;;;4950152;29;20153;-93
2023/04/29 16:30:30;;;;;;;;;;;;;;;;;;5382654;23;19914;-95
2023/04/29 16:32:56;;;;;;;;;;;;;;;;;;4950939;28;19938;-93
2023/04/29 16:50:57;;;;;;;;;;;;;;;;;;1120749;23;20174;-90
2023/04/29 16:53:24;;;;;;;;;;;;;;;;;;4955697;29;19986;-94
2023/04/29 16:55:51;;;;;;;;;;;;;;;;;;4972931;29;19937;-92
2023/04/29 16:58:23;;;;;;;;;;;;;;;;;;4975350;28;19948;-95
2023/04/29 17:03:25;;;;;;;;;;;;;;;;;;5549440;23;19981;-93
2023/04/29 17:57:45;;;;;;;;;;;;;;;;;;5425570;23;19933;-87
2023/04/29 18:00:12;;;;;;;;;;;;;;;;;;4955015;29;19923;-86
2023/04/29 18:02:38;;;;;;;;;;;;;;;;;;4961356;29;19929;-84
2023/04/29 18:05:16;;;;;;;;;;;;;;;;;;4940866;29;19970;-86
2023/04/29 18:07:42;;;;;;;;;;;;;;;;;;4964857;28;19926;-86
2023/04/29 18:10:09;;;;;;;;;;;;;;;;;;5488433;23;19959;-95
2023/04/29 18:12:35;;;;;;;;;;;;;;;;;;4971026;28;19949;-95
2023/04/29 18:15:04;;;;;;;;;;;;;;;;;;4965265;28;19922;-96
2023/04/29 18:20:06;;;;;;;;;;;;;;;;;;5031933;23;19933;-93
2023/04/29 18:22:32;;;;;;;;;;;;;;;;;;4966412;29;19911;-92
2023/04/29 18:27:35;;;;;;;;;;;;;;;;;;5196446;23;19937;-94
2023/04/29 18:30:00;;;;;;;;;;;;;;;;;;4970545;28;19922;-90
2023/04/29 18:32:26;;;;;;;;;;;;;;;;;;4964649;28;19923;-92
2023/04/29 18:53:03;;;;;;;;;;;;;;;;;;5884756;23;19986;-93
2023/04/29 19:24:03;;;;;;;;;;;;;;;;;;4963654;28;19927;-88
2023/04/29 19:26:48;;;;;;;;;;;;;;;;;;4979471;28;19927;-88
2023/04/29 19:29:14;;;;;;;;;;;;;;;;;;4946011;28;19958;-87
2023/04/29 19:31:40;;;;;;;;;;;;;;;;;;4952363;28;19931;-87
2023/04/29 19:34:10;;;;;;;;;;;;;;;;;;4948433;29;20222;-87
2023/04/29 19:39:27;;;;;;;;;;;;;;;;;;4982577;28;19926;-87
2023/04/29 19:44:58;;;;;;;;;;;;;;;;;;4968266;28;19963;-87
2023/04/29 19:47:35;;;;;;;;;;;;;;;;;;4962075;28;19994;-89
2023/04/29 19:50:01;;;;;;;;;;;;;;;;;;4963942;28;20065;-87
2023/04/29 19:52:28;;;;;;;;;;;;;;;;;;4977331;28;19911;-85
2023/04/29 19:55:22;;;;;;;;;;;;;;;;;;4984198;28;19933;-88
2023/04/29 19:58:09;;;;;;;;;;;;;;;;;;4981021;28;19926;-89
2023/04/29 20:00:40;;;;;;;;;;;;;;;;;;4983544;28;19965;-88
2023/04/29 22:03:09;;;;;;;;;;;;;;;;;;4963831;28;19949;-86
2023/04/29 22:05:34;;;;;;;;;;;;;;;;;;4946234;29;19946;-88
2023/04/29 22:08:01;;;;;;;;;;;;;;;;;;4947912;29;19931;-86
2023/04/29 22:10:27;;;;;;;;;;;;;;;;;;4947648;29;19946;-86
2023/04/29 22:12:53;;;;;;;;;;;;;;;;;;4948602;29;19922;-86
2023/04/29 22:15:19;;;;;;;;;;;;;;;;;;4964801;29;19992;-86
2023/04/29 22:17:45;;;;;;;;;;;;;;;;;;4943138;29;19926;-86
2023/04/29 22:20:11;;;;;;;;;;;;;;;;;;4947209;29;20396;-86
2023/04/29 22:22:37;;;;;;;;;;;;;;;;;;4948272;29;19929;-84
2023/04/29 22:25:03;;;;;;;;;;;;;;;;;;4948601;29;19971;-87
2023/04/29 22:27:29;;;;;;;;;;;;;;;;;;4948669;29;20013;-86
2023/04/29 22:29:55;;;;;;;;;;;;;;;;;;4948257;29;19973;-87
2023/04/29 22:32:21;;;;;;;;;;;;;;;;;;4948615;29;20009;-86
2023/04/29 22:34:47;;;;;;;;;;;;;;;;;;4949109;29;19930;-85
2023/04/29 22:37:13;;;;;;;;;;;;;;;;;;4949863;29;19929;-87
2023/04/29 22:39:39;;;;;;;;;;;;;;;;;;4964877;29;19907;-87
2023/04/29 22:42:05;;;;;;;;;;;;;;;;;;4948602;29;19933;-86
2023/04/29 22:44:31;;;;;;;;;;;;;;;;;;4948553;29;20292;-86
2023/04/29 22:46:57;;;;;;;;;;;;;;;;;;4947171;29;19927;-86
2023/04/29 22:49:26;;;;;;;;;;;;;;;;;;4948268;29;19938;-86
2023/04/29 22:51:52;;;;;;;;;;;;;;;;;;4947972;29;19929;-86
2023/04/29 22:54:18;;;;;;;;;;;;;;;;;;4947986;29;20218;-86
2023/04/29 22:56:44;;;;;;;;;;;;;;;;;;4947458;29;19966;-86
2023/04/29 22:59:10;;;;;;;;;;;;;;;;;;4947439;28;19923;-85
2023/04/29 23:01:36;;;;;;;;;;;;;;;;;;4948436;29;19929;-87
2023/04/29 23:04:02;;;;;;;;;;;;;;;;;;4948603;29;19953;-85
2023/04/29 23:06:28;;;;;;;;;;;;;;;;;;4948404;29;20458;-85
2023/04/29 23:08:54;;;;;;;;;;;;;;;;;;4964116;28;20011;-85
2023/04/29 23:11:20;;;;;;;;;;;;;;;;;;4948170;29;19926;-86
2023/04/29 23:13:47;;;;;;;;;;;;;;;;;;4949388;29;19923;-86
2023/04/29 23:16:22;;;;;;;;;;;;;;;;;;4963815;29;19926;-85
2023/04/29 23:18:52;;;;;;;;;;;;;;;;;;4980113;28;19931;-86
2023/04/29 23:21:34;;;;;;;;;;;;;;;;;;4960379;29;19938;-85
2023/04/29 23:24:18;;;;;;;;;;;;;;;;;;4947064;29;19953;-86
2023/04/29 23:26:51;;;;;;;;;;;;;;;;;;4966402;28;19932;-86
2023/04/29 23:32:25;;;;;;;;;;;;;;;;;;4976663;28;19926;-84
2023/04/29 23:34:52;;;;;;;;;;;;;;;;;;4978987;28;19977;-86
